createdAt,value
2022-08-10T00:00:12.062Z,2.80
2022-08-10T00:01:12.096Z,2.60
2022-08-10T00:02:12.054Z,2.80
2022-08-10T00:03:12.015Z,2.50
2022-08-10T00:04:21.013Z,2.50
2022-08-10T00:05:13.005Z,2.80
2022-08-10T00:06:11.993Z,3.00
2022-08-10T00:07:11.985Z,2.80
2022-08-10T00:08:11.972Z,2.80
2022-08-10T00:09:12.958Z,2.60
2022-08-10T00:10:11.953Z,2.60
2022-08-10T00:11:16.702Z,2.60
2022-08-10T00:12:11.955Z,2.80
2022-08-10T00:13:11.920Z,2.70
2022-08-10T00:14:11.916Z,2.50
2022-08-10T00:15:11.895Z,2.70
2022-08-10T00:16:12.893Z,2.70
2022-08-10T00:17:11.894Z,3.00
2022-08-10T00:18:11.872Z,2.90
2022-08-10T00:19:12.855Z,2.80
2022-08-10T00:20:11.862Z,2.80
2022-08-10T00:21:11.840Z,2.70
2022-08-10T00:22:11.850Z,2.60
2022-08-10T00:23:11.814Z,2.80
2022-08-10T00:24:11.811Z,2.60
2022-08-10T00:25:11.799Z,2.60
2022-08-10T00:26:11.783Z,2.60
2022-08-10T00:27:53.109Z,2.60
2022-08-10T00:28:12.774Z,2.60
2022-08-10T00:29:11.991Z,2.50
2022-08-10T00:30:11.748Z,2.70
2022-08-10T00:31:11.737Z,2.70
2022-08-10T00:32:11.739Z,2.70
2022-08-10T00:33:11.715Z,2.30
2022-08-10T00:34:11.706Z,2.60
2022-08-10T00:35:11.688Z,2.50
2022-08-10T00:36:11.679Z,2.50
2022-08-10T00:37:11.689Z,2.60
2022-08-10T00:38:11.666Z,2.60
2022-08-10T00:39:16.019Z,2.50
2022-08-10T00:40:12.644Z,2.70
2022-08-10T00:41:11.633Z,2.40
2022-08-10T00:42:11.635Z,2.50
2022-08-10T00:43:11.603Z,2.40
2022-08-10T00:44:11.602Z,2.50
2022-08-10T00:45:11.593Z,2.60
2022-08-10T00:46:11.581Z,2.50
2022-08-10T00:47:35.854Z,2.80
2022-08-10T00:48:12.572Z,2.90
2022-08-10T00:49:11.551Z,2.70
2022-08-10T00:50:11.543Z,2.50
2022-08-10T00:51:11.535Z,2.70
2022-08-10T00:52:11.538Z,2.50
2022-08-10T00:53:11.516Z,2.80
2022-08-10T00:54:11.505Z,2.50
2022-08-10T00:55:12.489Z,2.30
2022-08-10T00:57:14.017Z,2.70
2022-08-10T00:57:17.999Z,2.90
2022-08-10T00:58:12.468Z,2.70
2022-08-10T00:59:11.465Z,2.70
2022-08-10T01:00:11.439Z,2.80
2022-08-10T01:02:08.314Z,2.60
2022-08-10T01:02:12.537Z,2.90
2022-08-10T01:03:12.410Z,3.00
2022-08-10T01:04:40.138Z,2.90
2022-08-10T01:05:12.392Z,3.00
2022-08-10T01:06:15.202Z,2.70
2022-08-10T01:07:11.380Z,3.00
2022-08-10T01:08:11.361Z,2.80
2022-08-10T01:09:11.349Z,2.90
2022-08-10T01:10:11.344Z,3.10
2022-08-10T01:12:39.931Z,2.80
2022-08-10T01:12:39.933Z,3.20
2022-08-10T01:13:12.315Z,2.90
2022-08-10T01:14:11.295Z,2.80
2022-08-10T01:15:11.278Z,2.80
2022-08-10T01:16:13.954Z,3.20
2022-08-10T01:17:11.279Z,2.80
2022-08-10T01:18:11.252Z,2.80
2022-08-10T01:19:11.231Z,3.00
2022-08-10T01:20:11.237Z,2.80
2022-08-10T01:21:12.226Z,2.70
2022-08-10T01:22:11.232Z,2.90
2022-08-10T01:23:11.221Z,2.80
2022-08-10T01:24:11.187Z,2.80
2022-08-10T01:25:11.186Z,3.10
2022-08-10T01:26:30.323Z,3.00
2022-08-10T01:27:12.172Z,2.70
2022-08-10T01:28:11.155Z,2.80
2022-08-10T01:29:11.148Z,2.80
2022-08-10T01:30:11.119Z,2.80
2022-08-10T01:31:11.123Z,2.90
2022-08-10T01:32:11.123Z,2.70
2022-08-10T01:33:11.101Z,3.00
2022-08-10T01:34:11.077Z,2.60
2022-08-10T01:35:11.080Z,2.80
2022-08-10T01:36:11.068Z,2.90
2022-08-10T01:37:11.079Z,2.80
2022-08-10T01:38:11.070Z,2.70
2022-08-10T01:39:11.082Z,2.60
2022-08-10T01:40:11.034Z,2.70
2022-08-10T01:41:11.023Z,2.60
2022-08-10T01:42:11.022Z,2.70
2022-08-10T01:43:11.003Z,2.60
2022-08-10T01:44:11.083Z,3.10
2022-08-10T01:45:10.987Z,2.60
2022-08-10T01:46:10.973Z,2.70
2022-08-10T01:47:10.982Z,2.60
2022-08-10T01:48:16.619Z,2.80
2022-08-10T01:49:11.940Z,2.70
2022-08-10T01:50:10.922Z,2.50
2022-08-10T01:51:10.926Z,2.60
2022-08-10T01:52:10.935Z,2.80
2022-08-10T01:53:11.909Z,2.80
2022-08-10T01:54:13.026Z,2.70
2022-08-10T01:55:11.884Z,2.90
2022-08-10T01:56:10.879Z,2.70
2022-08-10T01:57:10.866Z,2.90
2022-08-10T01:58:10.867Z,2.70
2022-08-10T01:59:10.853Z,2.70
2022-08-10T02:00:10.836Z,3.20
2022-08-10T02:01:10.894Z,3.00
2022-08-10T02:02:10.801Z,3.00
2022-08-10T02:03:10.827Z,3.20
2022-08-10T02:04:10.799Z,2.80
2022-08-10T02:05:10.787Z,3.00
2022-08-10T02:06:10.767Z,3.00
2022-08-10T02:07:10.765Z,2.90
2022-08-10T02:08:10.769Z,2.70
2022-08-10T02:09:10.749Z,2.80
2022-08-10T02:10:10.734Z,2.90
2022-08-10T02:11:10.728Z,2.90
2022-08-10T02:12:10.719Z,3.00
2022-08-10T02:13:10.747Z,3.00
2022-08-10T02:14:10.690Z,3.00
2022-08-10T02:15:10.688Z,3.00
2022-08-10T02:16:10.679Z,2.90
2022-08-10T02:17:58.089Z,3.00
2022-08-10T02:18:11.665Z,2.60
2022-08-10T02:19:12.111Z,2.80
2022-08-10T02:20:10.630Z,2.80
2022-08-10T02:21:10.630Z,2.70
2022-08-10T02:22:45.757Z,2.70
2022-08-10T02:23:11.623Z,2.70
2022-08-10T02:24:10.595Z,2.60
2022-08-10T02:25:39.857Z,2.90
2022-08-10T02:26:11.573Z,2.70
2022-08-10T02:27:10.569Z,2.80
2022-08-10T02:28:10.584Z,3.10
2022-08-10T02:29:10.543Z,2.90
2022-08-10T02:30:11.538Z,2.80
2022-08-10T02:31:11.684Z,2.90
2022-08-10T02:32:10.525Z,3.00
2022-08-10T02:33:10.528Z,2.90
2022-08-10T02:34:10.521Z,2.70
2022-08-10T02:35:19.395Z,3.00
2022-08-10T02:36:11.486Z,3.00
2022-08-10T02:37:10.650Z,2.90
2022-08-10T02:38:10.474Z,3.00
2022-08-10T02:39:10.511Z,3.10
2022-08-10T02:42:18.214Z,3.10
2022-08-10T02:42:18.259Z,2.50
2022-08-10T02:45:03.266Z,2.80
2022-08-10T02:45:18.088Z,2.90
2022-08-10T02:45:20.984Z,2.70
2022-08-10T02:45:29.594Z,3.40
2022-08-10T02:46:11.375Z,3.10
2022-08-10T02:47:10.374Z,2.90
2022-08-10T02:48:10.386Z,2.90
2022-08-10T02:49:10.358Z,3.00
2022-08-10T02:50:10.355Z,2.60
2022-08-10T02:51:10.334Z,3.10
2022-08-10T02:52:10.319Z,2.90
2022-08-10T02:53:10.326Z,3.10
2022-08-10T02:54:11.309Z,2.80
2022-08-10T02:55:18.171Z,2.90
2022-08-10T02:56:11.287Z,3.30
2022-08-10T02:57:10.277Z,3.00
2022-08-10T02:58:16.650Z,2.90
2022-08-10T02:59:10.251Z,3.10
2022-08-10T03:00:10.250Z,3.00
2022-08-10T03:01:10.338Z,2.80
2022-08-10T03:02:10.222Z,3.10
2022-08-10T03:03:10.244Z,3.00
2022-08-10T03:04:55.511Z,2.90
2022-08-10T03:05:11.190Z,3.20
2022-08-10T03:06:10.190Z,2.90
2022-08-10T03:07:10.179Z,2.80
2022-08-10T03:08:10.194Z,3.00
2022-08-10T03:09:10.175Z,3.00
2022-08-10T03:10:13.145Z,3.00
2022-08-10T03:11:10.149Z,2.80
2022-08-10T03:12:35.201Z,3.00
2022-08-10T03:13:11.135Z,2.90
2022-08-10T03:14:10.138Z,3.10
2022-08-10T03:15:10.092Z,2.90
2022-08-10T03:16:11.088Z,3.00
2022-08-10T03:17:10.080Z,3.10
2022-08-10T03:18:10.074Z,2.80
2022-08-10T03:20:34.707Z,2.90
2022-08-10T03:20:38.373Z,3.00
2022-08-10T03:21:12.016Z,3.50
2022-08-10T03:22:10.023Z,2.90
2022-08-10T03:23:10.039Z,2.90
2022-08-10T03:24:30.385Z,3.20
2022-08-10T03:25:11.005Z,3.10
2022-08-10T03:26:09.974Z,2.90
2022-08-10T03:27:10.023Z,3.40
2022-08-10T03:28:09.974Z,3.30
2022-08-10T03:29:09.954Z,3.10
2022-08-10T03:30:31.841Z,3.00
2022-08-10T03:31:10.930Z,3.20
2022-08-10T03:32:09.917Z,3.10
2022-08-10T03:33:09.939Z,2.90
2022-08-10T03:34:20.134Z,3.10
2022-08-10T03:35:10.912Z,3.20
2022-08-10T03:36:42.643Z,2.90
2022-08-10T03:37:10.883Z,3.20
2022-08-10T03:38:09.903Z,3.10
2022-08-10T03:39:09.897Z,2.80
2022-08-10T03:40:09.833Z,3.10
2022-08-10T03:41:09.839Z,3.10
2022-08-10T03:42:09.820Z,3.00
2022-08-10T03:43:09.824Z,3.00
2022-08-10T03:44:09.895Z,3.60
2022-08-10T03:45:09.797Z,3.00
2022-08-10T03:46:09.827Z,3.00
2022-08-10T03:47:15.933Z,3.10
2022-08-10T03:48:10.765Z,3.30
2022-08-10T03:49:09.754Z,3.10
2022-08-10T03:50:45.392Z,3.10
2022-08-10T03:51:10.758Z,3.40
2022-08-10T03:52:09.725Z,3.20
2022-08-10T03:53:09.721Z,3.10
2022-08-10T03:54:10.702Z,3.00
2022-08-10T03:55:09.692Z,3.40
2022-08-10T03:56:28.462Z,3.40
2022-08-10T03:57:10.666Z,3.20
2022-08-10T03:58:09.688Z,3.00
2022-08-10T03:59:09.668Z,2.90
2022-08-10T04:00:09.638Z,3.10
2022-08-10T04:01:09.655Z,2.70
2022-08-10T04:02:45.905Z,3.20
2022-08-10T04:03:10.637Z,3.10
2022-08-10T04:04:12.887Z,3.20
2022-08-10T04:05:09.588Z,3.00
2022-08-10T04:06:09.576Z,2.90
2022-08-10T04:07:09.572Z,3.30
2022-08-10T04:08:09.572Z,2.90
2022-08-10T04:09:09.623Z,2.90
2022-08-10T04:10:13.006Z,3.30
2022-08-10T04:11:09.559Z,2.90
2022-08-10T04:12:09.513Z,3.20
2022-08-10T04:13:09.502Z,3.30
2022-08-10T04:14:47.276Z,3.30
2022-08-10T04:15:10.488Z,3.00
2022-08-10T04:16:09.478Z,3.30
2022-08-10T04:17:13.824Z,3.10
2022-08-10T04:18:10.839Z,3.40
2022-08-10T04:19:09.450Z,3.10
2022-08-10T04:20:09.447Z,3.50
2022-08-10T04:21:09.466Z,3.20
2022-08-10T04:22:09.424Z,3.50
2022-08-10T04:23:09.406Z,3.10
2022-08-10T04:24:09.416Z,3.40
2022-08-10T04:25:10.388Z,3.30
2022-08-10T04:26:09.382Z,3.40
2022-08-10T04:27:09.360Z,3.50
2022-08-10T04:28:09.345Z,3.40
2022-08-10T04:29:09.369Z,3.30
2022-08-10T04:30:09.339Z,3.50
2022-08-10T04:31:09.329Z,3.70
2022-08-10T04:32:09.304Z,3.40
2022-08-10T04:33:09.311Z,3.50
2022-08-10T04:34:09.314Z,3.70
2022-08-10T04:35:09.307Z,3.60
2022-08-10T04:36:09.273Z,3.50
2022-08-10T04:37:09.454Z,3.40
2022-08-10T04:38:09.271Z,3.80
2022-08-10T04:39:09.283Z,3.50
2022-08-10T04:40:24.943Z,4.00
2022-08-10T04:41:10.247Z,3.60
2022-08-10T04:42:09.220Z,3.30
2022-08-10T04:43:13.284Z,3.40
2022-08-10T04:44:10.219Z,3.90
2022-08-10T04:45:09.182Z,3.60
2022-08-10T04:46:55.462Z,3.50
2022-08-10T04:47:10.172Z,3.40
2022-08-10T04:48:41.110Z,3.70
2022-08-10T04:49:54.054Z,3.60
2022-08-10T04:50:10.131Z,3.80
2022-08-10T04:51:11.103Z,4.00
2022-08-10T04:52:10.125Z,3.80
2022-08-10T04:53:09.104Z,4.10
2022-08-10T04:54:11.967Z,3.80
2022-08-10T04:55:10.101Z,3.90
2022-08-10T04:56:09.067Z,3.70
2022-08-10T04:57:09.118Z,3.90
2022-08-10T04:58:09.047Z,4.10
2022-08-10T04:59:09.049Z,3.90
2022-08-10T05:00:11.496Z,4.30
2022-08-10T05:01:09.054Z,3.90
2022-08-10T05:02:27.087Z,4.10
2022-08-10T05:03:09.998Z,4.30
2022-08-10T05:04:36.308Z,4.10
2022-08-10T05:05:10.007Z,3.90
2022-08-10T05:06:08.983Z,4.00
2022-08-10T05:07:08.972Z,4.00
2022-08-10T05:08:08.949Z,4.00
2022-08-10T05:09:08.953Z,3.70
2022-08-10T05:10:13.365Z,4.10
2022-08-10T05:11:09.920Z,3.70
2022-08-10T05:12:08.916Z,3.80
2022-08-10T05:13:08.900Z,3.90
2022-08-10T05:14:08.912Z,3.70
2022-08-10T05:15:08.901Z,3.70
2022-08-10T05:16:08.876Z,4.00
2022-08-10T05:17:08.876Z,3.90
2022-08-10T05:18:11.316Z,3.90
2022-08-10T05:19:08.869Z,4.00
2022-08-10T05:20:08.887Z,4.40
2022-08-10T05:21:08.831Z,4.00
2022-08-10T05:22:08.822Z,3.70
2022-08-10T05:23:08.803Z,4.10
2022-08-10T05:24:09.809Z,3.80
2022-08-10T05:25:08.802Z,4.10
2022-08-10T05:26:08.782Z,3.70
2022-08-10T05:27:10.044Z,3.90
2022-08-10T05:28:08.744Z,3.80
2022-08-10T05:29:08.752Z,3.90
2022-08-10T05:30:08.734Z,4.00
2022-08-10T05:31:08.727Z,3.80
2022-08-10T05:32:08.711Z,4.00
2022-08-10T05:33:09.223Z,3.70
2022-08-10T05:34:20.369Z,3.90
2022-08-10T05:35:09.675Z,3.70
2022-08-10T05:36:09.669Z,3.90
2022-08-10T05:37:08.668Z,3.70
2022-08-10T05:38:14.312Z,4.00
2022-08-10T05:39:09.710Z,3.60
2022-08-10T05:40:08.622Z,3.70
2022-08-10T05:41:08.625Z,3.80
2022-08-10T05:42:08.672Z,3.60
2022-08-10T05:43:08.597Z,3.50
2022-08-10T05:44:08.603Z,3.80
2022-08-10T05:45:08.576Z,4.00
2022-08-10T05:46:18.350Z,3.60
2022-08-10T05:47:12.626Z,3.70
2022-08-10T05:48:55.006Z,3.90
2022-08-10T05:49:09.545Z,3.80
2022-08-10T05:50:08.529Z,3.90
2022-08-10T05:51:08.510Z,3.80
2022-08-10T05:52:08.523Z,3.80
2022-08-10T05:54:02.724Z,4.00
2022-08-10T05:54:09.492Z,4.00
2022-08-10T05:55:08.497Z,4.10
2022-08-10T05:56:08.471Z,3.50
2022-08-10T05:57:08.453Z,3.70
2022-08-10T05:58:08.445Z,3.60
2022-08-10T05:59:08.439Z,3.50
2022-08-10T06:00:32.896Z,3.70
2022-08-10T06:01:09.551Z,4.00
2022-08-10T06:02:31.138Z,3.70
2022-08-10T06:03:09.426Z,3.80
2022-08-10T06:04:08.376Z,3.70
2022-08-10T06:05:08.430Z,3.80
2022-08-10T06:06:08.368Z,4.10
2022-08-10T06:07:08.471Z,3.80
2022-08-10T06:08:08.347Z,3.70
2022-08-10T06:09:08.337Z,3.70
2022-08-10T06:10:10.330Z,3.70
2022-08-10T06:12:25.695Z,3.40
2022-08-10T06:12:26.364Z,3.90
2022-08-10T06:13:09.300Z,3.90
2022-08-10T06:14:15.809Z,3.70
2022-08-10T06:15:10.087Z,3.60
2022-08-10T06:16:09.266Z,3.50
2022-08-10T06:17:08.257Z,3.60
2022-08-10T06:18:08.241Z,3.60
2022-08-10T06:19:08.239Z,3.30
2022-08-10T06:20:08.238Z,3.60
2022-08-10T06:21:08.215Z,3.70
2022-08-10T06:22:08.204Z,3.50
2022-08-10T06:23:08.184Z,3.80
2022-08-10T06:24:08.191Z,3.70
2022-08-10T06:26:08.573Z,3.70
2022-08-10T06:26:14.704Z,3.60
2022-08-10T06:27:09.142Z,3.20
2022-08-10T06:28:08.172Z,3.80
2022-08-10T06:29:08.142Z,3.50
2022-08-10T06:30:20.045Z,3.60
2022-08-10T06:31:09.121Z,3.50
2022-08-10T06:32:08.108Z,3.20
2022-08-10T06:33:08.102Z,3.40
2022-08-10T06:34:08.085Z,3.40
2022-08-10T06:35:08.095Z,3.20
2022-08-10T06:36:08.059Z,3.10
2022-08-10T06:37:08.082Z,3.10
2022-08-10T06:38:08.077Z,3.20
2022-08-10T06:39:31.926Z,3.30
2022-08-10T06:40:09.115Z,3.10
2022-08-10T06:41:08.013Z,3.40
2022-08-10T06:42:15.942Z,3.20
2022-08-10T06:43:08.039Z,3.40
2022-08-10T06:44:07.988Z,3.40
2022-08-10T06:45:07.988Z,3.40
2022-08-10T06:46:08.726Z,3.20
2022-08-10T06:47:08.962Z,3.30
2022-08-10T06:48:07.948Z,3.40
2022-08-10T06:49:08.934Z,2.90
2022-08-10T06:50:08.820Z,3.10
2022-08-10T06:51:07.915Z,3.20
2022-08-10T06:52:07.908Z,2.90
2022-08-10T06:53:08.935Z,2.70
2022-08-10T06:54:07.885Z,3.00
2022-08-10T06:55:09.054Z,2.80
2022-08-10T06:56:07.862Z,2.70
2022-08-10T06:57:17.882Z,3.20
2022-08-10T06:58:09.847Z,2.90
2022-08-10T06:59:07.832Z,2.90
2022-08-10T07:00:07.842Z,2.70
2022-08-10T07:01:07.866Z,2.70
2022-08-10T07:02:07.811Z,2.80
2022-08-10T07:03:08.139Z,2.80
2022-08-10T07:04:07.783Z,2.60
2022-08-10T07:05:07.826Z,2.50
2022-08-10T07:06:07.773Z,2.70
2022-08-10T07:07:07.756Z,2.70
2022-08-10T07:08:07.846Z,2.60
2022-08-10T07:09:07.736Z,2.60
2022-08-10T07:10:07.750Z,2.90
2022-08-10T07:11:11.466Z,2.60
2022-08-10T07:12:09.071Z,2.50
2022-08-10T07:13:07.683Z,2.60
2022-08-10T07:14:16.147Z,2.70
2022-08-10T07:15:08.678Z,2.70
2022-08-10T07:16:07.664Z,2.70
2022-08-10T07:17:07.649Z,2.70
2022-08-10T07:18:08.637Z,2.40
2022-08-10T07:19:07.635Z,2.90
2022-08-10T07:20:07.651Z,2.50
2022-08-10T07:21:07.610Z,2.70
2022-08-10T07:22:07.607Z,2.80
2022-08-10T07:23:57.202Z,2.90
2022-08-10T07:24:08.962Z,2.60
2022-08-10T07:25:07.600Z,2.60
2022-08-10T07:26:07.593Z,2.60
2022-08-10T07:27:07.555Z,2.70
2022-08-10T07:28:07.545Z,2.70
2022-08-10T07:29:07.587Z,2.50
2022-08-10T07:30:08.558Z,2.50
2022-08-10T07:31:32.944Z,2.70
2022-08-10T07:32:08.525Z,3.10
2022-08-10T07:33:07.511Z,2.70
2022-08-10T07:34:07.486Z,2.80
2022-08-10T07:35:07.497Z,2.60
2022-08-10T07:36:07.474Z,2.90
2022-08-10T07:37:07.467Z,2.70
2022-08-10T07:38:07.481Z,2.80
2022-08-10T07:39:07.453Z,2.90
2022-08-10T07:40:07.536Z,2.70
2022-08-10T07:41:07.433Z,2.80
2022-08-10T07:42:07.420Z,2.40
2022-08-10T07:43:07.424Z,2.60
2022-08-10T07:44:07.406Z,2.50
2022-08-10T07:45:07.409Z,2.80
2022-08-10T07:46:09.483Z,2.50
2022-08-10T07:47:07.412Z,2.60
2022-08-10T07:48:08.183Z,2.60
2022-08-10T07:49:19.604Z,2.70
2022-08-10T07:50:08.343Z,2.60
2022-08-10T07:51:07.310Z,2.80
2022-08-10T07:52:07.304Z,2.80
2022-08-10T07:53:07.286Z,2.60
2022-08-10T07:54:07.285Z,2.50
2022-08-10T07:55:07.301Z,2.50
2022-08-10T07:56:20.916Z,2.80
2022-08-10T07:57:09.351Z,2.50
2022-08-10T07:58:07.257Z,2.40
2022-08-10T07:59:07.230Z,2.50
2022-08-10T08:00:07.275Z,2.60
2022-08-10T08:01:07.218Z,2.60
2022-08-10T08:02:07.260Z,2.80
2022-08-10T08:03:07.209Z,2.60
2022-08-10T08:04:11.350Z,2.80
2022-08-10T08:05:07.194Z,2.70
2022-08-10T08:06:11.737Z,2.60
2022-08-10T08:07:07.158Z,2.50
2022-08-10T08:08:07.142Z,2.30
2022-08-10T08:09:07.149Z,2.50
2022-08-10T08:10:08.141Z,2.50
2022-08-10T08:11:07.118Z,2.80
2022-08-10T08:12:07.115Z,2.80
2022-08-10T08:13:07.103Z,2.70
2022-08-10T08:14:07.093Z,2.70
2022-08-10T08:16:14.310Z,2.70
2022-08-10T08:16:16.987Z,2.70
2022-08-10T08:17:08.058Z,2.90
2022-08-10T08:18:07.134Z,2.40
2022-08-10T08:19:26.721Z,2.40
2022-08-10T08:20:09.162Z,2.50
2022-08-10T08:21:07.648Z,2.80
2022-08-10T08:24:07.954Z,2.50
2022-08-10T08:24:09.203Z,2.60
2022-08-10T08:24:31.588Z,2.80
2022-08-10T08:25:14.362Z,2.50
2022-08-10T08:26:09.016Z,3.00
2022-08-10T08:27:06.962Z,2.80
2022-08-10T08:28:06.967Z,2.60
2022-08-10T08:29:06.982Z,2.70
2022-08-10T08:30:06.912Z,2.80
2022-08-10T08:31:06.957Z,2.80
2022-08-10T08:32:06.897Z,2.80
2022-08-10T08:33:06.882Z,2.60
2022-08-10T08:34:06.897Z,2.80
2022-08-10T08:35:06.930Z,2.90
2022-08-10T08:36:06.868Z,2.70
2022-08-10T08:37:06.853Z,2.80
2022-08-10T08:38:32.249Z,2.70
2022-08-10T08:39:07.867Z,2.70
2022-08-10T08:40:06.817Z,2.50
2022-08-10T08:41:06.825Z,2.70
2022-08-10T08:42:06.796Z,2.50
2022-08-10T08:43:06.793Z,2.70
2022-08-10T08:44:06.777Z,2.80
2022-08-10T08:45:06.784Z,2.80
2022-08-10T08:46:06.758Z,2.60
2022-08-10T08:48:02.083Z,2.80
2022-08-10T08:48:07.752Z,2.70
2022-08-10T08:49:06.742Z,2.70
2022-08-10T08:50:09.437Z,2.70
2022-08-10T08:51:08.547Z,2.70
2022-08-10T08:52:17.674Z,3.30
2022-08-10T08:53:21.231Z,2.70
2022-08-10T08:54:08.682Z,2.50
2022-08-10T08:55:52.318Z,2.60
2022-08-10T08:56:07.688Z,2.60
2022-08-10T08:57:07.659Z,2.60
2022-08-10T08:58:06.648Z,2.80
2022-08-10T08:59:06.629Z,2.80
2022-08-10T09:00:06.627Z,2.50
2022-08-10T09:01:06.627Z,2.80
2022-08-10T09:02:06.625Z,2.80
2022-08-10T09:03:06.626Z,2.80
2022-08-10T09:04:06.581Z,2.70
2022-08-10T09:06:38.471Z,2.90
2022-08-10T09:07:06.547Z,3.00
2022-08-10T09:08:07.536Z,2.70
2022-08-10T09:09:06.530Z,2.90
2022-08-10T09:10:06.519Z,3.00
2022-08-10T09:11:06.521Z,2.90
2022-08-10T09:12:06.497Z,2.80
2022-08-10T09:13:06.486Z,2.70
2022-08-10T09:14:06.471Z,2.70
2022-08-10T09:15:06.469Z,2.90
2022-08-10T09:16:06.473Z,2.90
2022-08-10T09:17:06.456Z,3.00
2022-08-10T09:18:06.472Z,2.80
2022-08-10T09:19:06.433Z,2.90
2022-08-10T09:20:06.418Z,2.90
2022-08-10T09:21:06.418Z,2.90
2022-08-10T09:22:17.151Z,3.00
2022-08-10T09:23:07.377Z,3.00
2022-08-10T09:24:07.418Z,3.40
2022-08-10T09:25:06.368Z,3.00
2022-08-10T09:26:06.377Z,2.90
2022-08-10T09:27:06.348Z,2.90
2022-08-10T09:28:06.340Z,3.20
2022-08-10T09:29:12.874Z,2.80
2022-08-10T09:30:07.324Z,2.90
2022-08-10T09:31:23.047Z,2.90
2022-08-10T09:36:13.994Z,3.00
2022-08-10T09:36:19.796Z,2.80
2022-08-10T09:36:23.160Z,3.40
2022-08-10T09:36:23.357Z,3.00
2022-08-10T09:36:23.686Z,2.80
2022-08-10T09:37:07.260Z,3.10
2022-08-10T09:38:06.248Z,3.10
2022-08-10T09:39:06.290Z,3.00
2022-08-10T09:40:59.095Z,3.20
2022-08-10T09:41:13.040Z,3.00
2022-08-10T09:42:08.755Z,3.00
2022-08-10T09:43:26.152Z,2.90
2022-08-10T09:44:08.184Z,2.80
2022-08-10T09:45:06.168Z,3.40
2022-08-10T09:46:06.179Z,3.10
2022-08-10T09:47:07.151Z,2.90
2022-08-10T09:48:06.154Z,3.10
2022-08-10T09:49:06.133Z,2.90
2022-08-10T09:50:06.122Z,2.80
2022-08-10T09:52:08.096Z,3.10
2022-08-10T09:53:07.083Z,3.00
2022-08-10T09:54:06.086Z,2.90
2022-08-10T09:55:06.075Z,3.00
2022-08-10T09:56:16.996Z,2.80
2022-08-10T09:57:44.534Z,2.80
2022-08-10T09:58:08.039Z,2.80
2022-08-10T09:59:27.242Z,3.00
2022-08-10T10:00:07.033Z,3.00
2022-08-10T10:01:06.030Z,2.90
2022-08-10T10:02:06.998Z,3.00
2022-08-10T10:03:07.051Z,2.90
2022-08-10T10:04:05.999Z,2.90
2022-08-10T10:05:05.969Z,3.00
2022-08-10T10:06:05.981Z,3.40
2022-08-10T10:07:06.007Z,3.00
2022-08-10T10:08:05.955Z,3.00
2022-08-10T10:09:09.958Z,2.80
2022-08-10T10:10:05.926Z,3.00
2022-08-10T10:11:05.941Z,3.10
2022-08-10T10:12:09.381Z,2.80
2022-08-10T10:13:05.890Z,3.20
2022-08-10T10:14:10.499Z,2.80
2022-08-10T10:15:07.893Z,3.00
2022-08-10T10:16:05.879Z,3.20
2022-08-10T10:17:05.868Z,2.90
2022-08-10T10:18:05.904Z,2.90
2022-08-10T10:19:05.840Z,2.80
2022-08-10T10:20:05.854Z,3.10
2022-08-10T10:21:05.822Z,2.80
2022-08-10T10:22:05.894Z,3.00
2022-08-10T10:23:05.844Z,3.10
2022-08-10T10:24:21.412Z,3.00
2022-08-10T10:25:20.781Z,2.80
2022-08-10T10:26:15.965Z,2.90
2022-08-10T10:27:16.230Z,2.80
2022-08-10T10:28:06.758Z,2.80
2022-08-10T10:29:37.677Z,3.00
2022-08-10T10:30:07.742Z,2.90
2022-08-10T10:31:16.578Z,2.80
2022-08-10T10:32:06.742Z,2.70
2022-08-10T10:33:05.703Z,2.60
2022-08-10T10:34:05.707Z,2.90
2022-08-10T10:35:05.694Z,2.90
2022-08-10T10:36:05.682Z,2.70
2022-08-10T10:37:05.683Z,3.20
2022-08-10T10:38:05.662Z,2.90
2022-08-10T10:39:05.720Z,2.90
2022-08-10T10:40:05.643Z,2.90
2022-08-10T10:41:05.625Z,2.80
2022-08-10T10:42:05.646Z,2.80
2022-08-10T10:43:05.621Z,2.90
2022-08-10T10:44:05.613Z,2.80
2022-08-10T10:45:05.590Z,2.90
2022-08-10T10:46:05.595Z,2.90
2022-08-10T10:47:05.623Z,2.80
2022-08-10T10:48:05.571Z,2.80
2022-08-10T10:49:05.549Z,2.70
2022-08-10T10:50:05.541Z,2.70
2022-08-10T10:51:10.281Z,2.60
2022-08-10T10:52:06.544Z,2.80
2022-08-10T10:53:05.519Z,2.80
2022-08-10T10:54:05.509Z,2.80
2022-08-10T10:55:05.501Z,3.00
2022-08-10T10:56:14.866Z,2.90
2022-08-10T10:57:06.492Z,2.70
2022-08-10T10:58:05.700Z,2.70
2022-08-10T10:59:33.341Z,2.80
2022-08-10T11:00:06.455Z,2.90
2022-08-10T11:01:05.470Z,2.50
2022-08-10T11:02:05.451Z,2.60
2022-08-10T11:03:05.427Z,2.50
2022-08-10T11:04:05.433Z,2.40
2022-08-10T11:05:05.402Z,2.70
2022-08-10T11:06:09.501Z,2.80
2022-08-10T11:07:05.394Z,2.70
2022-08-10T11:08:05.373Z,2.90
2022-08-10T11:09:06.023Z,2.80
2022-08-10T11:10:31.954Z,2.90
2022-08-10T11:11:20.541Z,2.50
2022-08-10T11:12:06.349Z,2.80
2022-08-10T11:14:24.756Z,2.70
2022-08-10T11:14:27.498Z,2.80
2022-08-10T11:15:06.306Z,2.70
2022-08-10T11:16:05.307Z,2.70
2022-08-10T11:17:05.298Z,2.70
2022-08-10T11:18:05.277Z,3.00
2022-08-10T11:19:05.269Z,2.60
2022-08-10T11:20:05.258Z,2.90
2022-08-10T11:21:05.243Z,2.70
2022-08-10T11:22:05.251Z,3.20
2022-08-10T11:23:06.237Z,2.80
2022-08-10T11:24:48.051Z,3.00
2022-08-10T11:25:06.210Z,2.90
2022-08-10T11:26:05.204Z,2.70
2022-08-10T11:27:05.209Z,2.60
2022-08-10T11:28:05.188Z,2.90
2022-08-10T11:29:05.185Z,2.70
2022-08-10T11:30:05.165Z,2.90
2022-08-10T11:31:05.156Z,2.80
2022-08-10T11:32:05.162Z,2.70
2022-08-10T11:33:05.134Z,2.70
2022-08-10T11:34:47.803Z,2.60
2022-08-10T11:35:11.751Z,2.70
2022-08-10T11:36:06.104Z,2.80
2022-08-10T11:37:05.100Z,2.90
2022-08-10T11:38:31.619Z,2.80
2022-08-10T11:39:14.710Z,2.60
2022-08-10T11:40:07.101Z,2.50
2022-08-10T11:41:05.580Z,3.10
2022-08-10T11:42:12.898Z,2.90
2022-08-10T11:43:06.027Z,2.90
2022-08-10T11:44:05.028Z,2.80
2022-08-10T11:45:05.009Z,2.80
2022-08-10T11:46:07.870Z,2.80
2022-08-10T11:47:06.013Z,3.10
2022-08-10T11:48:04.985Z,2.70
2022-08-10T11:49:04.968Z,2.80
2022-08-10T11:50:04.968Z,2.70
2022-08-10T11:51:04.955Z,2.70
2022-08-10T11:52:04.961Z,2.80
2022-08-10T11:53:04.941Z,2.80
2022-08-10T11:54:04.928Z,2.90
2022-08-10T11:55:04.919Z,2.60
2022-08-10T11:56:09.841Z,2.80
2022-08-10T11:57:05.919Z,3.00
2022-08-10T11:58:04.894Z,2.60
2022-08-10T11:59:10.093Z,2.90
2022-08-10T12:00:05.860Z,2.60
2022-08-10T12:01:04.858Z,2.70
2022-08-10T12:02:04.894Z,2.70
2022-08-10T12:03:04.933Z,2.70
2022-08-10T12:04:04.826Z,3.00
2022-08-10T12:05:04.816Z,2.90
2022-08-10T12:06:04.810Z,2.90
2022-08-10T12:07:04.820Z,2.70
2022-08-10T12:10:06.566Z,2.70
2022-08-10T12:10:10.185Z,2.70
2022-08-10T12:10:13.632Z,2.70
2022-08-10T12:11:05.750Z,2.70
2022-08-10T12:12:04.778Z,3.00
2022-08-10T12:13:04.751Z,2.90
2022-08-10T12:14:20.779Z,2.80
2022-08-10T12:15:06.716Z,2.90
2022-08-10T12:16:05.753Z,2.70
2022-08-10T12:17:05.711Z,2.70
2022-08-10T12:18:04.706Z,2.90
2022-08-10T12:19:04.679Z,2.90
2022-08-10T12:20:04.675Z,3.00
2022-08-10T12:21:04.675Z,2.80
2022-08-10T12:22:06.268Z,2.90
2022-08-10T12:23:05.645Z,2.90
2022-08-10T12:24:04.634Z,2.80
2022-08-10T12:25:04.623Z,2.90
2022-08-10T12:26:04.617Z,2.70
2022-08-10T12:27:04.608Z,2.90
2022-08-10T12:28:04.588Z,3.00
2022-08-10T12:29:04.579Z,3.00
2022-08-10T12:30:04.584Z,2.80
2022-08-10T12:31:04.587Z,2.80
2022-08-10T12:32:04.579Z,2.80
2022-08-10T12:33:04.548Z,2.80
2022-08-10T12:34:04.533Z,2.70
2022-08-10T12:35:04.515Z,2.50
2022-08-10T12:36:18.648Z,2.60
2022-08-10T12:37:06.528Z,2.60
2022-08-10T12:38:04.503Z,2.70
2022-08-10T12:39:04.488Z,2.60
2022-08-10T12:40:33.455Z,2.50
2022-08-10T12:41:06.476Z,2.80
2022-08-10T12:42:04.477Z,2.70
2022-08-10T12:44:05.327Z,2.70
2022-08-10T12:44:08.836Z,2.50
2022-08-10T12:45:04.435Z,2.70
2022-08-10T12:46:06.748Z,2.70
2022-08-10T12:47:10.531Z,2.90
2022-08-10T12:48:05.396Z,2.90
2022-08-10T12:49:04.404Z,2.80
2022-08-10T12:50:29.218Z,2.80
2022-08-10T12:51:05.370Z,2.70
2022-08-10T12:52:04.379Z,2.70
2022-08-10T12:53:04.885Z,2.50
2022-08-10T12:54:04.344Z,2.60
2022-08-10T12:55:04.341Z,2.80
2022-08-10T12:56:04.321Z,2.70
2022-08-10T12:57:04.329Z,2.90
2022-08-10T12:58:05.490Z,2.80
2022-08-10T12:59:05.283Z,2.80
2022-08-10T13:00:04.341Z,2.70
2022-08-10T13:01:17.911Z,2.80
2022-08-10T13:02:10.950Z,2.90
2022-08-10T13:03:04.343Z,3.10
2022-08-10T13:04:22.779Z,3.50
2022-08-10T13:05:05.222Z,2.90
2022-08-10T13:06:04.215Z,2.90
2022-08-10T13:07:04.222Z,2.70
2022-08-10T13:08:26.881Z,2.80
2022-08-10T13:09:05.192Z,2.90
2022-08-10T13:10:04.189Z,2.80
2022-08-10T13:11:04.169Z,2.80
2022-08-10T13:12:37.151Z,3.00
2022-08-10T13:13:05.158Z,2.80
2022-08-10T13:14:04.145Z,2.90
2022-08-10T13:15:04.137Z,2.70
2022-08-10T13:16:05.127Z,2.80
2022-08-10T13:17:04.133Z,2.60
2022-08-10T13:18:04.105Z,2.80
2022-08-10T13:19:04.100Z,3.00
2022-08-10T13:20:13.584Z,2.70